Home > Products > Valid Products > TAF

000
FTUS45 KMSO 182327
TAFSMN
TAF
KSMN 182327Z 1900/1924 VRB03KT P6SM BKN070
      AMD LTD TO CLD VIS AND WIND=



000
FTUS45 KMSO 182327
TAFMSO
TAF
KMSO 182327Z 1900/1924 VRB03KT P6SM OVC050
     FM191200 00000KT 5SM BR OVC035=



000
FTUS45 KMSO 182327
TAFBTM
TAF
KBTM 182327Z 1900/1924 VRB04KT P6SM OVC060
     FM190300 00000KT P6SM BKN120=



000
FTUS45 KMSO 182327
TAFGPI
TAF
KGPI 182327Z 1900/1924 00000KT P6SM OVC011
     FM190300 17003KT 3SM BR OVC006
     FM191500 17003KT 6SM BR VCSH OVC050=



000
FTUS45 KMSO 182234 AAB
TAFGPI
TAF AMD
KGPI 182234Z 1823/1918 00000KT 6SM BR OVC009
     FM190300 17003KT 3SM BR OVC006
     FM191500 17003KT 6SM BR VCSH OVC050=



000
FTUS45 KMSO 182022 AAA
TAFGPI
TAF AMD
KGPI 182022Z 1820/1918 00000KT 3SM -SN BKN025 OVC040
      TEMPO 1820/1822 1 1/2SM -SN
     FM182200 00000KT 6SM BR VCSH SCT015 OVC040
     FM190300 17003KT 5SM BR BKN010 OVC040
     FM191500 17003KT 6SM BR VCSH OVC050=



000
FTUS45 KMSO 181740
TAFBTM
TAF
KBTM 181740Z 1818/1918 VRB04KT P6SM OVC100=



000
FTUS45 KMSO 181740
TAFSMN
TAF
KSMN 181740Z 1818/1918 VRB03KT P6SM BKN080
      AMD LTD TO CLD VIS AND WIND=



000
FTUS45 KMSO 181740
TAFGPI
TAF
KGPI 181740Z 1818/1918 00000KT 6SM BR VCSH SCT010 OVC040
     FM190300 17003KT 5SM BR BKN010 OVC040
     FM191500 17003KT 6SM BR VCSH OVC050=



000
FTUS45 KMSO 181740
TAFMSO
TAF
KMSO 181740Z 1818/1918 VRB03KT P6SM OVC050=



000
FTUS45 KMSO 181429 AAA
TAFGPI
TAF AMD
KGPI 181429Z 1814/1912 00000KT 5SM BR VCSH SCT015 OVC035
      TEMPO 1815/1818 18004KT 2SM -SN BKN015 OVC035=



000
FTUS45 KMSO 181125
TAFGPI
TAF
KGPI 181125Z 1812/1912 00000KT 6SM BR VCSH BKN015 OVC035
     FM181330 00000KT 2SM -SN BR OVC010
     FM181600 18004KT 5SM BR VCSH BKN015
     FM182100 17005KT 6SM HZ SCT015 BKN035=



000
FTUS45 KMSO 181125
TAFMSO
TAF
KMSO 181125Z 1812/1912 00000KT P6SM VCSH BKN050
     FM181600 VRB03KT P6SM OVC060=



000
FTUS45 KMSO 181125
TAFBTM
TAF
KBTM 181125Z 1812/1912 00000KT P6SM BKN080
     FM181800 VRB04KT P6SM BKN150=



000
FTUS45 KMSO 181125
TAFSMN
TAF
KSMN 181125Z 1812/1912 VRB03KT P6SM BKN080
      AMD LTD TO CLD VIS AND WIND=



000
FTUS45 KMSO 180840 AAA
TAFGPI
TAF AMD
KGPI 180840Z 1809/1906 00000KT 3SM -SN BR BKN030 OVC060
     FM181200 00000KT 6SM BR VCSH BKN025 OVC035=



000
FTUS45 KMSO 180840 AAA
TAFGPI
TAF AMD
KGPI 180840Z 1809/1906 00000KT 3SM -SN BR BKN030 OVC060
     FM181200 00000KT 6SM BR VCSH BKN025 OVC035=



000
FTUS45 KMSO 180520
TAFMSO
TAF
KMSO 180520Z 1806/1906 00000KT P6SM BKN070 BKN090
     FM181000 00000KT P6SM BKN050 OVC060=



000
FTUS45 KMSO 180520
TAFSMN
TAF
KSMN 180520Z 1806/1906 00000KT P6SM BKN150
     FM180800 00000KT P6SM BKN080
      AMD LTD TO CLD VIS AND WIND=



000
FTUS45 KMSO 180520
TAFGPI
TAF
KGPI 180520Z 1806/1906 00000KT P6SM VCSH BKN040 OVC060
     FM181200 00000KT P6SM -SN BKN025 OVC035=



000
FTUS45 KMSO 180520
TAFBTM
TAF
KBTM 180520Z 1806/1906 00000KT P6SM BKN140
     FM181200 00000KT P6SM BKN070=



000
FTUS45 KMSO 172320
TAFGPI
TAF
KGPI 172320Z 1800/1824 00000KT P6SM BKN070
     FM180400 00000KT P6SM VCSH BKN040 OVC060
     FM181200 00000KT P6SM -SN BKN015 OVC030=



000
FTUS45 KMSO 172320
TAFMSO
TAF
KMSO 172320Z 1800/1824 00000KT P6SM BKN140
     FM180300 00000KT P6SM SCT050 OVC070=



000
FTUS45 KMSO 172320
TAFBTM
TAF
KBTM 172320Z 1800/1824 00000KT P6SM SCT120=



000
FTUS45 KMSO 172320
TAFSMN
TAF
KSMN 172320Z 1800/1824 00000KT P6SM BKN150
     FM180400 00000KT P6SM BKN080
      AMD LTD TO CLD VIS AND WIND=



000
FTUS45 KMSO 172237 AAA
TAFSMN
TAF AMD
KSMN 172237Z 1723/1818 00000KT P6SM BKN150
     FM180400 00000KT P6SM BKN080
      AMD LTD TO CLD VIS AND WIND=



000
FTUS45 KMSO 172236 AAA
TAFBTM
TAF AMD
KBTM 172236Z 1723/1818 00000KT P6SM SCT120=



000
FTUS45 KMSO 172234 AAB
TAFMSO
TAF AMD
KMSO 172234Z 1723/1818 00000KT P6SM BKN140
     FM180300 00000KT P6SM SCT050 OVC070=



000
FTUS45 KMSO 172232 AAA
TAFGPI
TAF AMD
KGPI 172232Z 1723/1818 00000KT P6SM BKN070
     FM180400 00000KT P6SM VCSH BKN040 OVC060
     FM181200 00000KT P6SM -SN BKN015 OVC030=



000
FTUS45 KMSO 171720
TAFGPI
TAF
KGPI 171720Z 1718/1818 00000KT P6SM OVC040
     FM181200 00000KT P6SM VCSH BKN015 OVC030=



000
FTUS45 KMSO 171720
TAFBTM
TAF
KBTM 171720Z 1718/1818 00000KT P6SM BKN050=



000
FTUS45 KMSO 171720
TAFMSO
TAF
KMSO 171720Z 1718/1818 00000KT P6SM BKN070=



000
FTUS45 KMSO 171720
TAFSMN
TAF
KSMN 171720Z 1718/1818 00000KT 5SM BR BKN070
     FM171900 00000KT P6SM BKN070
      AMD LTD TO CLD VIS AND WIND=



000
FTUS45 KMSO 171527 AAA
TAFSMN
TAF AMD
KSMN 171527Z 1715/1812 00000KT 4SM BR FEW005 BKN070
     FM171700 00000KT P6SM OVC100
      AMD LTD TO CLD VIS AND WIND=



000
FTUS45 KMSO 171129
TAFGPI
TAF
KGPI 171129Z 1712/1812 00000KT P6SM BKN040 OVC060=



000
FTUS45 KMSO 171129
TAFSMN
TAF
KSMN 171129Z 1712/1812 00000KT P6SM OVC040
     FM171800 00000KT P6SM OVC100
      AMD LTD TO CLD VIS AND WIND=



000
FTUS45 KMSO 171129
TAFMSO
TAF
KMSO 171129Z 1712/1812 00000KT P6SM VCSH OVC060
     FM171800 VRB03KT P6SM OVC100=



000
FTUS45 KMSO 171129
TAFBTM
TAF
KBTM 171129Z 1712/1812 00000KT P6SM OVC050
     FM171800 00000KT P6SM FEW030=



000
FTUS45 KMSO 171017 AAC
TAFBTM
TAF AMD
KBTM 171017Z 1710/1806 00000KT P6SM OVC050
     FM171800 00000KT P6SM FEW030=



000
FTUS45 KMSO 170942 AAB
TAFBTM
TAF AMD
KBTM 170942Z 1710/1806 00000KT 3SM -SHSN BR OVC035
     FM171200 00000KT P6SM VCFG FEW001 FEW030
     FM171800 00000KT P6SM FEW030=



000
FTUS45 KMSO 170831 AAB
TAFSMN
TAF AMD
KSMN 170831Z 1709/1806 00000KT P6SM OVC060
     FM171200 00000KT 4SM BR SCT020
     FM171500 00000KT 1SM BR SCT010
     FM171800 00000KT P6SM SCT030
      AMD LTD TO CLD VIS AND WIND=



000
FTUS45 KMSO 170831 AAB
TAFSMN
TAF AMD
KSMN 170831Z 1709/1806 00000KT P6SM OVC060
     FM171200 00000KT 4SM BR SCT020
     FM171500 00000KT 1SM BR SCT010
     FM171800 00000KT P6SM SCT030
      AMD LTD TO CLD VIS AND WIND=



000
FTUS45 KMSO 170830 AAA
TAFBTM
TAF AMD
KBTM 170830Z 1709/1806 00000KT 2SM -SHSN BR OVC025
     FM171000 00000KT P6SM VCFG FEW001 FEW030
     FM171800 00000KT P6SM FEW030=



000
FTUS45 KMSO 170830 AAA
TAFBTM
TAF AMD
KBTM 170830Z 1709/1806 00000KT 2SM -SHSN BR OVC025
     FM171000 00000KT P6SM VCFG FEW001 FEW030
     FM171800 00000KT P6SM FEW030=



000
FTUS45 KMSO 170717 AAA
TAFSMN
TAF AMD
KSMN 170717Z 1707/1806 00000KT P6SM BKN020 OVC060
     FM171200 00000KT 4SM BR SCT020
     FM171500 00000KT 1SM BR SCT010
     FM171800 00000KT P6SM SCT030
      AMD LTD TO CLD VIS AND WIND=



000
FTUS45 KMSO 170717 AAA
TAFSMN
TAF AMD
KSMN 170717Z 1707/1806 00000KT P6SM BKN020 OVC060
     FM171200 00000KT 4SM BR SCT020
     FM171500 00000KT 1SM BR SCT010
     FM171800 00000KT P6SM SCT030
      AMD LTD TO CLD VIS AND WIND=



000
FTUS45 KMSO 170520
TAFMSO
TAF
KMSO 170520Z 1706/1806 00000KT P6SM OVC050
     FM171900 VRB03KT P6SM SCT050
     FM180300 00000KT P6SM BKN060=



000
FTUS45 KMSO 170520
TAFSMN
TAF
KSMN 170520Z 1706/1806 00000KT P6SM FEW020 BKN060
     FM171200 00000KT 4SM BR SCT020
     FM171500 00000KT 1SM BR SCT010
     FM171800 00000KT P6SM SCT030
      AMD LTD TO CLD VIS AND WIND=



000
FTUS45 KMSO 170520
TAFBTM
TAF
KBTM 170520Z 1706/1806 00000KT 4SM -SN BR SCT005 OVC040
     FM171000 00000KT P6SM VCFG FEW001 FEW030
     FM171800 00000KT P6SM FEW030=



000
FTUS45 KMSO 170520
TAFGPI
TAF
KGPI 170520Z 1706/1806 00000KT P6SM OVC060
     FM171200 00000KT P6SM OVC040=



000
FTUS45 KMSO 170404 AAA
TAFSMN
TAF AMD
KSMN 170404Z 1704/1724 00000KT P6SM FEW020 BKN060
     FM171200 00000KT 4SM BR SCT020
     FM171800 00000KT P6SM SCT030
      AMD LTD TO CLD VIS AND WIND=



000
FTUS45 KMSO 170404 AAA
TAFSMN
TAF AMD
KSMN 170404Z 1704/1724 00000KT P6SM FEW020 BKN060
     FM171200 00000KT 4SM BR SCT020
     FM171800 00000KT P6SM SCT030
      AMD LTD TO CLD VIS AND WIND=



000
FTUS45 KMSO 170022 AAA
TAFBTM
TAF AMD
KBTM 170022Z 1700/1724 VRB03KT 5SM -SN SCT020 OVC040
     FM170100 00000KT 3SM -SN BR SCT010 OVC020
     FM170130 00000KT 2SM -SN BR SCT005 OVC015
     FM170400 00000KT 4SM -SN BR SCT005 OVC020
     FM171100 00000KT P6SM VCFG FEW001 SCT030
     FM171800 00000KT P6SM SCT030=



000
FTUS45 KMSO 162333
TAFGPI
TAF
KGPI 162333Z 1700/1724 36003KT P6SM OVC060
     FM171200 00000KT P6SM OVC030=



000
FTUS45 KMSO 162333
TAFBTM
TAF
KBTM 162333Z 1700/1724 VRB03KT 5SM -SN SCT020 OVC030
     FM170030 00000KT 2SM -SN BR SCT005 OVC015
     FM170400 00000KT 4SM -SN BR SCT005 OVC020
     FM171100 00000KT P6SM VCFG FEW001 SCT030
     FM171800 00000KT P6SM SCT030=



000
FTUS45 KMSO 162333
TAFMSO
TAF
KMSO 162333Z 1700/1724 12007KT P6SM OVC060
     FM170500 00000KT P6SM OVC050=



000
FTUS45 KMSO 162333
TAFSMN
TAF
KSMN 162333Z 1700/1724 00000KT 2SM -SN OVC020
     FM170200 00000KT 4SM -SN OVC020
     FM170600 VRB03KT P6SM SCT020
     FM171200 00000KT 4SM BR SCT020
     FM171800 00000KT P6SM SCT030
      AMD LTD TO CLD VIS AND WIND=



000
FTUS45 KMSO 162254 AAA
TAFBTM
TAF AMD
KBTM 162254Z 1623/1718 VRB03KT 5SM -SN SCT020 OVC030
     FM162330 00000KT 4SM -SN SCT010 OVC020
     FM170030 00000KT 2SM -SN BR SCT005 OVC015
     FM170500 00000KT 4SM -SN BR SCT005 OVC020
     FM171100 00000KT P6SM VCFG FEW001 SCT030=



000
FTUS45 KMSO 162143 AAB
TAFSMN
TAF AMD
KSMN 162143Z 1622/1718 00000KT 2SM -SN OVC015
     FM170200 00000KT 4SM -SN OVC020
     FM170600 VRB03KT P6SM FEW050
      AMD LTD TO CLD VIS AND WIND=



000
FTUS45 KMSO 162026 AAA
TAFSMN
TAF AMD
KSMN 162026Z 1620/1718 00000KT P6SM VCSH BKN035
     FM162100 00000KT 5SM -SN SCT015 OVC025
     FM170600 VRB03KT P6SM FEW050
      AMD LTD TO CLD VIS AND WIND=



000
FTUS45 KMSO 161720
TAFGPI
TAF
KGPI 161720Z 1618/1718 36003KT P6SM OVC090=



000
FTUS45 KMSO 161720
TAFBTM
TAF
KBTM 161720Z 1618/1718 VRB03KT P6SM OVC060
     FM162200 VRB03KT P6SM VCSH OVC040
     FM170000 VRB03KT 5SM -SN SCT015 OVC030
     FM171200 00000KT P6SM FEW030=



000
FTUS45 KMSO 161720
TAFSMN
TAF
KSMN 161720Z 1618/1718 00000KT P6SM BKN090
     FM162100 00000KT P6SM VCSH BKN050
     FM162300 00000KT 5SM -SN SCT015 OVC030
     FM170600 VRB03KT P6SM FEW050
      AMD LTD TO CLD VIS AND WIND=



000
FTUS45 KMSO 161720
TAFMSO
TAF
KMSO 161720Z 1618/1718 12007KT P6SM OVC080=



000
FTUS45 KMSO 161120
TAFGPI
TAF
KGPI 161120Z 1612/1712 36009KT P6SM SCT150
     FM161700 VRB03KT P6SM OVC100=



000
FTUS45 KMSO 161120
TAFSMN
TAF
KSMN 161120Z 1612/1712 VRB03KT P6SM SCT150
     FM161800 VRB03KT P6SM OVC050
     FM162100 VRB03KT 6SM -SN OVC030
      AMD LTD TO CLD VIS AND WIND=



000
FTUS45 KMSO 161120
TAFMSO
TAF
KMSO 161120Z 1612/1712 12012KT P6SM SCT150
     FM161800 11004KT P6SM BKN060=



000
FTUS45 KMSO 161120
TAFBTM
TAF
KBTM 161120Z 1612/1712 VRB03KT P6SM FEW110
     FM161500 VRB03KT P6SM BKN060
     FM170200 VRB03KT 5SM -SN SCT020 BKN030=



000
FTUS45 KMSO 160520
TAFBTM
TAF
KBTM 160520Z 1606/1706 VRB03KT P6SM SKC
     FM160800 VRB03KT P6SM VCFG SKC
     FM161100 VRB02KT 4SM BR SCT007 BKN080
     FM161500 VRB03KT P6SM BKN060
     FM170200 VRB03KT 5SM -SN SCT020 BKN030=



000
FTUS45 KMSO 160520
TAFMSO
TAF
KMSO 160520Z 1606/1706 12012KT P6SM SCT150
     FM161800 11004KT P6SM BKN060=



000
FTUS45 KMSO 160520
TAFGPI
TAF
KGPI 160520Z 1606/1706 36005KT P6SM SCT010
     FM161200 34004KT 3SM BR SCT020 BKN150
     FM161600 VRB04KT P6SM SCT020 BKN090
     FM161700 VRB03KT P6SM OVC070=



000
FTUS45 KMSO 160520
TAFSMN
TAF
KSMN 160520Z 1606/1706 VRB03KT P6SM SCT040
     FM160900 VRB03KT P6SM OVC100
     FM161800 VRB03KT P6SM OVC050
     FM162100 VRB03KT 6SM -SN OVC030
      AMD LTD TO CLD VIS AND WIND=



000
FTUS45 KMSO 160342 AAA
TAFBTM
TAF AMD
KBTM 160342Z 1604/1624 VRB03KT P6SM SKC
     FM160800 VRB03KT 6SM BR SCT020
     FM161200 VRB02KT 2SM BR SCT007 BKN015
     FM161700 VRB02KT 5SM BR SCT020 BKN050=



000
FTUS45 KMSO 160342 AAA
TAFBTM
TAF AMD
KBTM 160342Z 1604/1624 VRB03KT P6SM SKC
     FM160800 VRB03KT 6SM BR SCT020
     FM161200 VRB02KT 2SM BR SCT007 BKN015
     FM161700 VRB02KT 5SM BR SCT020 BKN050=



    US Dept of Commerce
    National Oceanic and Atmospheric Administration
    National Weather Service
    1325 East West Highway
    Silver Spring, MD 20910
    Page Author: NWS Internet Services Team
Disclaimer
Information Quality
Credits
Glossary
Privacy Policy
Freedom of Information Act (FOIA)
About Us
Career Opportunities